Perdix, Pennsylvania
Current Conditions -  °F | °C
As of 7:56 AM on Wednesday 26 Nov 2014 (Local Time) from KCXY Reporting Station
Moderate Rain Moderate Rain  
Wind Chill: 33°   Ceiling: 1800
Heat Index: 39°   Visibility: 7mi
Dew Point: 34°   Wind: 8mph
Humidity: 82%   Direction: 70°ENE
Pressure: 30.11"   Gusts: NA
Location:  40.4048°N, 77.0696°W
Report Text: KCXY 261256Z 07007KT 7SM RA OVC018 04/01 A3011 RMK AO2 SLP200 P0005 T00390011
Loading
Personal Weather Stations






























Interactive Weather Map New forecast layout! Learn more

10-Day Weather Forecast

Advertisements
Track Severe Weather on mobile